sensor_id;sensor_type;location;lat;lon;timestamp;temperature;humidity
20081;DHT22;10200;49.232;9.222;2023-05-01T00:01:37;12.00;99.90
20081;DHT22;10200;49.232;9.222;2023-05-01T00:04:02;11.90;99.90
20081;DHT22;10200;49.232;9.222;2023-05-01T00:06:28;11.80;99.90
20081;DHT22;10200;49.232;9.222;2023-05-01T00:08:54;11.80;99.90
20081;DHT22;10200;49.232;9.222;2023-05-01T00:11:19;11.90;99.90
20081;DHT22;10200;49.232;9.222;2023-05-01T00:13:45;11.80;99.90
20081;DHT22;10200;49.232;9.222;2023-05-01T00:16:11;11.90;99.90
20081;DHT22;10200;49.232;9.222;2023-05-01T00:18:37;11.90;99.90
20081;DHT22;10200;49.232;9.222;2023-05-01T00:21:03;11.80;99.90
20081;DHT22;10200;49.232;9.222;2023-05-01T00:23:29;11.70;99.90
20081;DHT22;10200;49.232;9.222;2023-05-01T00:25:55;12.00;99.90
20081;DHT22;10200;49.232;9.222;2023-05-01T00:28:20;11.80;99.90
20081;DHT22;10200;49.232;9.222;2023-05-01T00:30:46;11.90;99.90
20081;DHT22;10200;49.232;9.222;2023-05-01T00:33:12;12.10;99.90
20081;DHT22;10200;49.232;9.222;2023-05-01T00:35:37;11.80;99.90
20081;DHT22;10200;49.232;9.222;2023-05-01T00:38:03;11.80;99.90
20081;DHT22;10200;49.232;9.222;2023-05-01T00:40:29;11.80;99.90
20081;DHT22;10200;49.232;9.222;2023-05-01T00:42:55;11.70;99.90
20081;DHT22;10200;49.232;9.222;2023-05-01T00:45:20;12.00;99.90
20081;DHT22;10200;49.232;9.222;2023-05-01T00:47:46;11.80;99.90
20081;DHT22;10200;49.232;9.222;2023-05-01T00:50:12;11.80;99.90
20081;DHT22;10200;49.232;9.222;2023-05-01T00:52:38;12.00;99.90
20081;DHT22;10200;49.232;9.222;2023-05-01T00:55:04;11.60;99.90
20081;DHT22;10200;49.232;9.222;2023-05-01T00:57:30;11.70;99.90
20081;DHT22;10200;49.232;9.222;2023-05-01T00:59:57;11.70;99.90
20081;DHT22;10200;49.232;9.222;2023-05-01T01:02:23;11.70;99.90
20081;DHT22;10200;49.232;9.222;2023-05-01T01:04:48;11.60;99.90
20081;DHT22;10200;49.232;9.222;2023-05-01T01:07:18;11.70;99.90
20081;DHT22;10200;49.232;9.222;2023-05-01T01:12:26;11.50;99.90
20081;DHT22;10200;49.232;9.222;2023-05-01T01:21:34;11.40;99.90
20081;DHT22;10200;49.232;9.222;2023-05-01T01:24:27;11.40;99.90
20081;DHT22;10200;49.232;9.222;2023-05-01T01:35:54;11.40;99.90
20081;DHT22;10200;49.232;9.222;2023-05-01T01:38:28;11.40;99.90
20081;DHT22;10200;49.232;9.222;2023-05-01T01:40:58;11.40;99.90
20081;DHT22;10200;49.232;9.222;2023-05-01T01:43:28;11.40;99.90
20081;DHT22;10200;49.232;9.222;2023-05-01T01:46:01;11.40;99.90
20081;DHT22;10200;49.232;9.222;2023-05-01T01:48:35;11.40;99.90
20081;DHT22;10200;49.232;9.222;2023-05-01T01:51:05;11.50;99.90
20081;DHT22;10200;49.232;9.222;2023-05-01T01:53:33;11.40;99.90
20081;DHT22;10200;49.232;9.222;2023-05-01T01:56:03;11.50;99.90
20081;DHT22;10200;49.232;9.222;2023-05-01T01:58:31;11.50;99.90
20081;DHT22;10200;49.232;9.222;2023-05-01T02:00:57;11.40;99.90
20081;DHT22;10200;49.232;9.222;2023-05-01T02:03:24;11.40;99.90
20081;DHT22;10200;49.232;9.222;2023-05-01T02:05:52;11.40;99.90
20081;DHT22;10200;49.232;9.222;2023-05-01T02:08:19;11.30;99.90
20081;DHT22;10200;49.232;9.222;2023-05-01T02:10:46;11.30;99.90
20081;DHT22;10200;49.232;9.222;2023-05-01T02:13:12;11.30;99.90
20081;DHT22;10200;49.232;9.222;2023-05-01T02:15:39;11.40;99.90
20081;DHT22;10200;49.232;9.222;2023-05-01T02:18:05;11.30;99.90
20081;DHT22;10200;49.232;9.222;2023-05-01T02:20:32;11.30;99.90
20081;DHT22;10200;49.232;9.222;2023-05-01T02:22:59;11.30;99.90
20081;DHT22;10200;49.232;9.222;2023-05-01T02:25:26;11.20;99.90
20081;DHT22;10200;49.232;9.222;2023-05-01T02:28:02;11.20;99.90
20081;DHT22;10200;49.232;9.222;2023-05-01T02:30:31;11.20;99.90
20081;DHT22;10200;49.232;9.222;2023-05-01T02:32:56;11.20;99.90
20081;DHT22;10200;49.232;9.222;2023-05-01T02:35:22;11.20;99.90
20081;DHT22;10200;49.232;9.222;2023-05-01T02:37:47;11.20;99.90
20081;DHT22;10200;49.232;9.222;2023-05-01T02:40:14;11.20;99.90
20081;DHT22;10200;49.232;9.222;2023-05-01T02:42:43;11.20;99.90
20081;DHT22;10200;49.232;9.222;2023-05-01T02:45:17;11.20;99.90
20081;DHT22;10200;49.232;9.222;2023-05-01T02:47:45;11.10;99.90
20081;DHT22;10200;49.232;9.222;2023-05-01T02:50:13;11.20;99.90
20081;DHT22;10200;49.232;9.222;2023-05-01T02:52:40;11.00;99.90
20081;DHT22;10200;49.232;9.222;2023-05-01T02:55:07;11.10;99.90
20081;DHT22;10200;49.232;9.222;2023-05-01T02:57:33;11.10;99.90
20081;DHT22;10200;49.232;9.222;2023-05-01T02:59:59;11.00;99.90
20081;DHT22;10200;49.232;9.222;2023-05-01T03:02:24;11.10;99.90
20081;DHT22;10200;49.232;9.222;2023-05-01T03:04:50;11.10;99.90
20081;DHT22;10200;49.232;9.222;2023-05-01T03:07:15;11.10;99.90
20081;DHT22;10200;49.232;9.222;2023-05-01T03:09:42;11.10;99.90
20081;DHT22;10200;49.232;9.222;2023-05-01T03:12:07;11.10;99.90
20081;DHT22;10200;49.232;9.222;2023-05-01T03:14:33;10.90;99.90
20081;DHT22;10200;49.232;9.222;2023-05-01T03:16:59;11.10;99.90
20081;DHT22;10200;49.232;9.222;2023-05-01T03:19:25;11.10;99.90
20081;DHT22;10200;49.232;9.222;2023-05-01T03:21:50;11.10;99.90
20081;DHT22;10200;49.232;9.222;2023-05-01T03:24:16;11.00;99.90
20081;DHT22;10200;49.232;9.222;2023-05-01T03:26:41;11.10;99.90
20081;DHT22;10200;49.232;9.222;2023-05-01T03:29:07;11.00;99.90
20081;DHT22;10200;49.232;9.222;2023-05-01T03:31:34;11.00;99.90
20081;DHT22;10200;49.232;9.222;2023-05-01T03:33:59;10.90;99.90
20081;DHT22;10200;49.232;9.222;2023-05-01T03:36:25;10.90;99.90
20081;DHT22;10200;49.232;9.222;2023-05-01T03:38:51;10.90;99.90
20081;DHT22;10200;49.232;9.222;2023-05-01T03:41:17;10.90;99.90
20081;DHT22;10200;49.232;9.222;2023-05-01T03:43:43;10.90;99.90
20081;DHT22;10200;49.232;9.222;2023-05-01T03:46:09;10.90;99.90
20081;DHT22;10200;49.232;9.222;2023-05-01T03:48:34;10.90;99.90
20081;DHT22;10200;49.232;9.222;2023-05-01T03:51:00;10.80;99.90
20081;DHT22;10200;49.232;9.222;2023-05-01T03:53:26;10.80;99.90
20081;DHT22;10200;49.232;9.222;2023-05-01T03:55:51;10.80;99.90
20081;DHT22;10200;49.232;9.222;2023-05-01T03:58:17;10.80;99.90
20081;DHT22;10200;49.232;9.222;2023-05-01T04:00:42;10.80;99.90
20081;DHT22;10200;49.232;9.222;2023-05-01T04:03:08;10.80;99.90
20081;DHT22;10200;49.232;9.222;2023-05-01T04:05:34;10.80;99.90
20081;DHT22;10200;49.232;9.222;2023-05-01T04:08:00;10.90;99.90
20081;DHT22;10200;49.232;9.222;2023-05-01T04:10:25;10.80;99.90
20081;DHT22;10200;49.232;9.222;2023-05-01T04:12:51;10.80;99.90
20081;DHT22;10200;49.232;9.222;2023-05-01T04:15:17;10.80;99.90
20081;DHT22;10200;49.232;9.222;2023-05-01T04:17:42;10.80;99.90
20081;DHT22;10200;49.232;9.222;2023-05-01T04:20:09;10.80;99.90
20081;DHT22;10200;49.232;9.222;2023-05-01T04:22:35;10.80;99.90
20081;DHT22;10200;49.232;9.222;2023-05-01T04:25:01;10.80;99.90
20081;DHT22;10200;49.232;9.222;2023-05-01T04:27:27;10.80;99.90
20081;DHT22;10200;49.232;9.222;2023-05-01T04:29:52;10.80;99.90
20081;DHT22;10200;49.232;9.222;2023-05-01T04:32:18;10.80;99.90
20081;DHT22;10200;49.232;9.222;2023-05-01T04:34:44;10.80;99.90
20081;DHT22;10200;49.232;9.222;2023-05-01T04:37:10;10.90;99.90
20081;DHT22;10200;49.232;9.222;2023-05-01T04:39:35;10.90;99.90
20081;DHT22;10200;49.232;9.222;2023-05-01T04:42:02;10.90;99.90
20081;DHT22;10200;49.232;9.222;2023-05-01T04:44:28;10.90;99.90
20081;DHT22;10200;49.232;9.222;2023-05-01T04:46:53;11.00;99.90
20081;DHT22;10200;49.232;9.222;2023-05-01T04:49:21;11.00;99.90
20081;DHT22;10200;49.232;9.222;2023-05-01T04:51:46;11.10;99.90
20081;DHT22;10200;49.232;9.222;2023-05-01T04:54:12;11.10;99.90
20081;DHT22;10200;49.232;9.222;2023-05-01T04:56:37;11.20;99.90
20081;DHT22;10200;49.232;9.222;2023-05-01T04:59:03;11.20;99.90
20081;DHT22;10200;49.232;9.222;2023-05-01T05:01:28;11.30;99.90
20081;DHT22;10200;49.232;9.222;2023-05-01T05:03:54;11.30;99.90
20081;DHT22;10200;49.232;9.222;2023-05-01T05:06:20;11.40;99.90
20081;DHT22;10200;49.232;9.222;2023-05-01T05:08:46;11.40;99.90
20081;DHT22;10200;49.232;9.222;2023-05-01T05:11:11;11.50;99.90
20081;DHT22;10200;49.232;9.222;2023-05-01T05:13:37;11.50;99.90
20081;DHT22;10200;49.232;9.222;2023-05-01T05:16:03;11.50;99.90
20081;DHT22;10200;49.232;9.222;2023-05-01T05:18:28;11.60;99.90
20081;DHT22;10200;49.232;9.222;2023-05-01T05:20:54;11.60;99.90
20081;DHT22;10200;49.232;9.222;2023-05-01T05:23:20;11.70;99.90
20081;DHT22;10200;49.232;9.222;2023-05-01T05:25:46;11.80;99.90
20081;DHT22;10200;49.232;9.222;2023-05-01T05:28:11;11.80;99.90
20081;DHT22;10200;49.232;9.222;2023-05-01T05:30:37;11.80;99.90
20081;DHT22;10200;49.232;9.222;2023-05-01T05:33:02;11.80;99.90
20081;DHT22;10200;49.232;9.222;2023-05-01T05:35:29;11.90;99.90
20081;DHT22;10200;49.232;9.222;2023-05-01T05:37:55;12.00;99.90
20081;DHT22;10200;49.232;9.222;2023-05-01T05:40:21;11.90;99.90
20081;DHT22;10200;49.232;9.222;2023-05-01T05:42:46;12.00;99.90
20081;DHT22;10200;49.232;9.222;2023-05-01T05:45:12;11.90;99.90
20081;DHT22;10200;49.232;9.222;2023-05-01T05:47:37;12.00;99.90
20081;DHT22;10200;49.232;9.222;2023-05-01T05:50:04;12.00;99.90
20081;DHT22;10200;49.232;9.222;2023-05-01T05:52:30;12.10;99.90
20081;DHT22;10200;49.232;9.222;2023-05-01T05:54:56;12.10;99.90
20081;DHT22;10200;49.232;9.222;2023-05-01T05:57:21;12.00;99.90
20081;DHT22;10200;49.232;9.222;2023-05-01T05:59:47;12.00;99.90
20081;DHT22;10200;49.232;9.222;2023-05-01T06:02:13;12.00;99.90
20081;DHT22;10200;49.232;9.222;2023-05-01T06:04:38;11.90;99.90
20081;DHT22;10200;49.232;9.222;2023-05-01T06:07:04;11.90;99.90
20081;DHT22;10200;49.232;9.222;2023-05-01T06:09:30;11.90;99.90
20081;DHT22;10200;49.232;9.222;2023-05-01T06:11:56;11.80;99.90
20081;DHT22;10200;49.232;9.222;2023-05-01T06:14:22;11.90;99.90
20081;DHT22;10200;49.232;9.222;2023-05-01T06:16:48;11.80;99.90
20081;DHT22;10200;49.232;9.222;2023-05-01T06:19:13;11.80;99.90
20081;DHT22;10200;49.232;9.222;2023-05-01T06:21:39;11.90;99.90
20081;DHT22;10200;49.232;9.222;2023-05-01T06:24:05;11.90;99.90
20081;DHT22;10200;49.232;9.222;2023-05-01T06:26:31;11.90;99.90
20081;DHT22;10200;49.232;9.222;2023-05-01T06:28:57;11.90;99.90
20081;DHT22;10200;49.232;9.222;2023-05-01T06:31:22;12.00;99.90
20081;DHT22;10200;49.232;9.222;2023-05-01T06:33:48;12.10;99.90
20081;DHT22;10200;49.232;9.222;2023-05-01T06:36:13;12.10;99.90
20081;DHT22;10200;49.232;9.222;2023-05-01T06:38:42;12.20;99.90
20081;DHT22;10200;49.232;9.222;2023-05-01T06:41:13;12.20;99.90
20081;DHT22;10200;49.232;9.222;2023-05-01T06:43:39;12.30;99.90
20081;DHT22;10200;49.232;9.222;2023-05-01T06:46:04;12.40;99.90
20081;DHT22;10200;49.232;9.222;2023-05-01T06:48:30;12.30;99.90
20081;DHT22;10200;49.232;9.222;2023-05-01T06:50:56;12.30;99.90
20081;DHT22;10200;49.232;9.222;2023-05-01T06:53:21;12.40;99.90
20081;DHT22;10200;49.232;9.222;2023-05-01T06:55:47;12.40;99.90
20081;DHT22;10200;49.232;9.222;2023-05-01T06:58:12;12.40;99.90
20081;DHT22;10200;49.232;9.222;2023-05-01T07:00:38;12.40;99.90
20081;DHT22;10200;49.232;9.222;2023-05-01T07:03:03;12.50;99.90
20081;DHT22;10200;49.232;9.222;2023-05-01T07:05:29;12.50;99.90
20081;DHT22;10200;49.232;9.222;2023-05-01T07:07:55;12.50;99.90
20081;DHT22;10200;49.232;9.222;2023-05-01T07:10:20;12.60;99.90
20081;DHT22;10200;49.232;9.222;2023-05-01T07:12:46;12.50;99.90
20081;DHT22;10200;49.232;9.222;2023-05-01T07:15:12;12.50;99.90
20081;DHT22;10200;49.232;9.222;2023-05-01T07:17:40;12.60;99.80
20081;DHT22;10200;49.232;9.222;2023-05-01T07:20:06;12.50;99.90
20081;DHT22;10200;49.232;9.222;2023-05-01T07:22:32;12.60;99.90
20081;DHT22;10200;49.232;9.222;2023-05-01T07:24:57;12.60;99.90
20081;DHT22;10200;49.232;9.222;2023-05-01T07:27:25;12.60;99.90
20081;DHT22;10200;49.232;9.222;2023-05-01T07:29:52;12.60;99.90
20081;DHT22;10200;49.232;9.222;2023-05-01T07:32:17;12.60;99.90
20081;DHT22;10200;49.232;9.222;2023-05-01T07:34:43;12.70;99.80
20081;DHT22;10200;49.232;9.222;2023-05-01T07:37:09;12.70;99.70
20081;DHT22;10200;49.232;9.222;2023-05-01T07:39:34;12.80;99.80
20081;DHT22;10200;49.232;9.222;2023-05-01T07:42:00;12.80;99.10
20081;DHT22;10200;49.232;9.222;2023-05-01T07:44:26;12.80;98.90
20081;DHT22;10200;49.232;9.222;2023-05-01T07:46:51;12.90;99.00
20081;DHT22;10200;49.232;9.222;2023-05-01T07:49:17;12.90;98.60
20081;DHT22;10200;49.232;9.222;2023-05-01T07:51:42;12.90;98.40
20081;DHT22;10200;49.232;9.222;2023-05-01T07:54:09;12.90;98.20
20081;DHT22;10200;49.232;9.222;2023-05-01T07:56:35;13.00;98.80
20081;DHT22;10200;49.232;9.222;2023-05-01T07:59:00;13.10;98.40
20081;DHT22;10200;49.232;9.222;2023-05-01T08:01:26;13.20;98.60
20081;DHT22;10200;49.232;9.222;2023-05-01T08:03:52;13.30;98.10
20081;DHT22;10200;49.232;9.222;2023-05-01T08:06:18;13.30;97.50
20081;DHT22;10200;49.232;9.222;2023-05-01T08:08:43;13.60;99.90
20081;DHT22;10200;49.232;9.222;2023-05-01T08:11:09;13.50;96.50
20081;DHT22;10200;49.232;9.222;2023-05-01T08:13:34;13.50;95.80
20081;DHT22;10200;49.232;9.222;2023-05-01T08:16:01;13.60;95.80
20081;DHT22;10200;49.232;9.222;2023-05-01T08:18:28;13.60;95.70
20081;DHT22;10200;49.232;9.222;2023-05-01T08:20:54;13.60;95.60
20081;DHT22;10200;49.232;9.222;2023-05-01T08:23:20;13.60;95.20
20081;DHT22;10200;49.232;9.222;2023-05-01T08:25:45;13.60;95.30
20081;DHT22;10200;49.232;9.222;2023-05-01T08:28:13;13.60;95.80
20081;DHT22;10200;49.232;9.222;2023-05-01T08:30:38;13.70;95.70
20081;DHT22;10200;49.232;9.222;2023-05-01T08:33:04;13.70;95.30
20081;DHT22;10200;49.232;9.222;2023-05-01T08:35:30;13.70;95.40
20081;DHT22;10200;49.232;9.222;2023-05-01T08:37:55;13.70;95.60
20081;DHT22;10200;49.232;9.222;2023-05-01T08:40:23;13.70;95.30
20081;DHT22;10200;49.232;9.222;2023-05-01T08:42:50;13.70;95.30
20081;DHT22;10200;49.232;9.222;2023-05-01T08:45:18;13.70;95.20
20081;DHT22;10200;49.232;9.222;2023-05-01T08:47:47;13.70;95.00
20081;DHT22;10200;49.232;9.222;2023-05-01T08:50:13;13.70;95.10
20081;DHT22;10200;49.232;9.222;2023-05-01T08:52:40;13.70;95.10
20081;DHT22;10200;49.232;9.222;2023-05-01T08:55:11;13.70;94.60
20081;DHT22;10200;49.232;9.222;2023-05-01T08:57:37;13.70;93.90
20081;DHT22;10200;49.232;9.222;2023-05-01T09:00:04;13.70;93.70
20081;DHT22;10200;49.232;9.222;2023-05-01T09:02:33;13.70;93.70
20081;DHT22;10200;49.232;9.222;2023-05-01T09:05:00;13.70;93.70
20081;DHT22;10200;49.232;9.222;2023-05-01T09:07:26;13.70;93.50
20081;DHT22;10200;49.232;9.222;2023-05-01T09:09:51;13.80;93.10
20081;DHT22;10200;49.232;9.222;2023-05-01T09:12:22;13.80;93.40
20081;DHT22;10200;49.232;9.222;2023-05-01T09:14:55;13.80;93.20
20081;DHT22;10200;49.232;9.222;2023-05-01T09:17:21;13.90;93.10
20081;DHT22;10200;49.232;9.222;2023-05-01T09:19:48;14.00;93.00
20081;DHT22;10200;49.232;9.222;2023-05-01T09:22:14;14.00;92.90
20081;DHT22;10200;49.232;9.222;2023-05-01T09:24:40;14.10;92.80
20081;DHT22;10200;49.232;9.222;2023-05-01T09:27:06;14.10;92.50
20081;DHT22;10200;49.232;9.222;2023-05-01T09:29:45;14.20;92.00
20081;DHT22;10200;49.232;9.222;2023-05-01T09:32:21;14.20;91.50
20081;DHT22;10200;49.232;9.222;2023-05-01T09:34:48;14.30;91.70
20081;DHT22;10200;49.232;9.222;2023-05-01T09:37:33;14.50;91.00
20081;DHT22;10200;49.232;9.222;2023-05-01T09:42:37;14.50;91.10
20081;DHT22;10200;49.232;9.222;2023-05-01T09:45:14;14.60;90.70
20081;DHT22;10200;49.232;9.222;2023-05-01T09:47:46;14.70;90.60
20081;DHT22;10200;49.232;9.222;2023-05-01T09:50:32;14.80;90.20
20081;DHT22;10200;49.232;9.222;2023-05-01T09:53:03;14.90;89.40
20081;DHT22;10200;49.232;9.222;2023-05-01T09:55:29;14.90;86.20
20081;DHT22;10200;49.232;9.222;2023-05-01T09:57:55;15.10;86.90
20081;DHT22;10200;49.232;9.222;2023-05-01T10:00:23;15.10;84.60
20081;DHT22;10200;49.232;9.222;2023-05-01T10:02:49;15.20;84.30
20081;DHT22;10200;49.232;9.222;2023-05-01T10:05:16;15.30;83.50
20081;DHT22;10200;49.232;9.222;2023-05-01T10:07:55;15.40;83.10
20081;DHT22;10200;49.232;9.222;2023-05-01T10:10:21;15.50;81.20
20081;DHT22;10200;49.232;9.222;2023-05-01T10:12:48;15.60;81.40
20081;DHT22;10200;49.232;9.222;2023-05-01T10:15:14;15.70;80.10
20081;DHT22;10200;49.232;9.222;2023-05-01T10:17:41;15.70;80.00
20081;DHT22;10200;49.232;9.222;2023-05-01T10:20:09;15.80;80.30
20081;DHT22;10200;49.232;9.222;2023-05-01T10:22:35;15.90;79.20
20081;DHT22;10200;49.232;9.222;2023-05-01T10:25:01;15.90;79.70
20081;DHT22;10200;49.232;9.222;2023-05-01T10:27:29;16.10;79.00
20081;DHT22;10200;49.232;9.222;2023-05-01T10:29:54;16.10;78.90
20081;DHT22;10200;49.232;9.222;2023-05-01T10:32:21;16.20;78.30
20081;DHT22;10200;49.232;9.222;2023-05-01T10:34:54;16.30;78.10
20081;DHT22;10200;49.232;9.222;2023-05-01T10:37:28;16.30;77.10
20081;DHT22;10200;49.232;9.222;2023-05-01T10:39:55;16.40;75.60
20081;DHT22;10200;49.232;9.222;2023-05-01T10:42:21;16.60;75.70
20081;DHT22;10200;49.232;9.222;2023-05-01T10:44:47;16.70;74.50
20081;DHT22;10200;49.232;9.222;2023-05-01T10:50:06;16.80;73.40
20081;DHT22;10200;49.232;9.222;2023-05-01T10:55:46;17.20;74.20
20081;DHT22;10200;49.232;9.222;2023-05-01T11:04:06;17.70;70.40
20081;DHT22;10200;49.232;9.222;2023-05-01T11:06:33;17.60;70.50
20081;DHT22;10200;49.232;9.222;2023-05-01T11:09:00;17.60;70.40
20081;DHT22;10200;49.232;9.222;2023-05-01T11:21:35;17.80;68.50
20081;DHT22;10200;49.232;9.222;2023-05-01T11:24:02;18.00;69.30
20081;DHT22;10200;49.232;9.222;2023-05-01T11:26:29;18.20;68.10
20081;DHT22;10200;49.232;9.222;2023-05-01T11:28:57;18.20;67.70
20081;DHT22;10200;49.232;9.222;2023-05-01T11:31:25;18.30;68.00
20081;DHT22;10200;49.232;9.222;2023-05-01T11:33:52;18.40;66.70
20081;DHT22;10200;49.232;9.222;2023-05-01T11:36:20;18.30;65.50
20081;DHT22;10200;49.232;9.222;2023-05-01T11:38:50;18.20;65.60
20081;DHT22;10200;49.232;9.222;2023-05-01T11:41:19;18.10;65.80
20081;DHT22;10200;49.232;9.222;2023-05-01T11:43:57;18.20;66.60
20081;DHT22;10200;49.232;9.222;2023-05-01T11:46:26;18.30;66.50
20081;DHT22;10200;49.232;9.222;2023-05-01T11:48:56;18.30;65.20
20081;DHT22;10200;49.232;9.222;2023-05-01T11:51:23;18.30;64.90
20081;DHT22;10200;49.232;9.222;2023-05-01T11:54:09;18.30;63.90
20081;DHT22;10200;49.232;9.222;2023-05-01T11:56:36;18.20;64.90
20081;DHT22;10200;49.232;9.222;2023-05-01T11:59:10;18.20;66.30
20081;DHT22;10200;49.232;9.222;2023-05-01T12:01:38;18.40;65.30
20081;DHT22;10200;49.232;9.222;2023-05-01T12:04:05;18.40;64.50
20081;DHT22;10200;49.232;9.222;2023-05-01T12:09:16;18.40;63.10
20081;DHT22;10200;49.232;9.222;2023-05-01T12:11:43;18.60;65.00
20081;DHT22;10200;49.232;9.222;2023-05-01T12:14:10;18.70;62.30
20081;DHT22;10200;49.232;9.222;2023-05-01T12:16:36;18.70;62.50
20081;DHT22;10200;49.232;9.222;2023-05-01T12:19:05;18.60;62.90
20081;DHT22;10200;49.232;9.222;2023-05-01T12:21:31;18.60;63.30
20081;DHT22;10200;49.232;9.222;2023-05-01T12:24:10;18.80;63.90
20081;DHT22;10200;49.232;9.222;2023-05-01T12:26:36;18.80;63.20
20081;DHT22;10200;49.232;9.222;2023-05-01T12:29:04;18.80;64.30
20081;DHT22;10200;49.232;9.222;2023-05-01T12:31:30;18.80;64.80
20081;DHT22;10200;49.232;9.222;2023-05-01T12:34:04;18.90;64.40
20081;DHT22;10200;49.232;9.222;2023-05-01T12:36:35;19.00;64.80
20081;DHT22;10200;49.232;9.222;2023-05-01T12:39:08;19.10;64.50
20081;DHT22;10200;49.232;9.222;2023-05-01T12:46:51;19.20;62.10
20081;DHT22;10200;49.232;9.222;2023-05-01T12:49:21;19.30;62.20
20081;DHT22;10200;49.232;9.222;2023-05-01T12:51:48;19.40;61.60
20081;DHT22;10200;49.232;9.222;2023-05-01T12:54:25;19.30;60.20
20081;DHT22;10200;49.232;9.222;2023-05-01T12:56:51;19.20;59.40
20081;DHT22;10200;49.232;9.222;2023-05-01T12:59:23;19.10;60.30
20081;DHT22;10200;49.232;9.222;2023-05-01T13:01:56;19.10;60.80
20081;DHT22;10200;49.232;9.222;2023-05-01T13:04:23;19.10;61.00
20081;DHT22;10200;49.232;9.222;2023-05-01T13:06:51;19.00;61.10
20081;DHT22;10200;49.232;9.222;2023-05-01T13:09:23;19.10;61.40
20081;DHT22;10200;49.232;9.222;2023-05-01T13:14:23;18.90;60.50
20081;DHT22;10200;49.232;9.222;2023-05-01T13:16:48;18.80;61.00
20081;DHT22;10200;49.232;9.222;2023-05-01T13:19:24;18.90;60.80
20081;DHT22;10200;49.232;9.222;2023-05-01T13:21:51;18.90;61.10
20081;DHT22;10200;49.232;9.222;2023-05-01T13:24:16;18.90;60.30
20081;DHT22;10200;49.232;9.222;2023-05-01T13:26:43;19.00;61.30
20081;DHT22;10200;49.232;9.222;2023-05-01T13:29:13;19.10;60.40
20081;DHT22;10200;49.232;9.222;2023-05-01T13:31:42;18.90;59.40
20081;DHT22;10200;49.232;9.222;2023-05-01T13:34:09;18.80;60.70
20081;DHT22;10200;49.232;9.222;2023-05-01T13:36:35;18.60;60.60
20081;DHT22;10200;49.232;9.222;2023-05-01T13:39:00;18.60;61.60
20081;DHT22;10200;49.232;9.222;2023-05-01T13:41:26;18.60;61.70
20081;DHT22;10200;49.232;9.222;2023-05-01T13:43:54;18.70;61.90
20081;DHT22;10200;49.232;9.222;2023-05-01T13:46:22;18.60;61.40
20081;DHT22;10200;49.232;9.222;2023-05-01T13:48:48;18.70;61.70
20081;DHT22;10200;49.232;9.222;2023-05-01T13:51:24;18.60;61.40
20081;DHT22;10200;49.232;9.222;2023-05-01T13:53:51;18.50;62.00
20081;DHT22;10200;49.232;9.222;2023-05-01T13:56:17;18.50;62.00
20081;DHT22;10200;49.232;9.222;2023-05-01T13:58:43;18.60;62.50
20081;DHT22;10200;49.232;9.222;2023-05-01T14:01:17;18.50;62.00
20081;DHT22;10200;49.232;9.222;2023-05-01T14:03:44;18.60;62.70
20081;DHT22;10200;49.232;9.222;2023-05-01T14:06:13;18.60;61.70
20081;DHT22;10200;49.232;9.222;2023-05-01T14:08:38;18.60;61.40
20081;DHT22;10200;49.232;9.222;2023-05-01T14:11:06;18.60;61.10
20081;DHT22;10200;49.232;9.222;2023-05-01T14:13:34;18.60;61.20
20081;DHT22;10200;49.232;9.222;2023-05-01T14:16:01;18.70;61.70
20081;DHT22;10200;49.232;9.222;2023-05-01T14:18:30;18.90;60.90
20081;DHT22;10200;49.232;9.222;2023-05-01T14:20:55;18.90;61.10
20081;DHT22;10200;49.232;9.222;2023-05-01T14:23:23;18.90;59.90
20081;DHT22;10200;49.232;9.222;2023-05-01T14:25:49;18.80;60.90
20081;DHT22;10200;49.232;9.222;2023-05-01T14:28:15;18.80;61.60
20081;DHT22;10200;49.232;9.222;2023-05-01T14:30:41;18.70;61.80
20081;DHT22;10200;49.232;9.222;2023-05-01T14:33:09;18.70;62.10
20081;DHT22;10200;49.232;9.222;2023-05-01T14:35:42;18.70;62.00
20081;DHT22;10200;49.232;9.222;2023-05-01T14:38:13;18.70;63.30
20081;DHT22;10200;49.232;9.222;2023-05-01T14:40:40;18.60;63.60
20081;DHT22;10200;49.232;9.222;2023-05-01T14:43:09;18.60;62.70
20081;DHT22;10200;49.232;9.222;2023-05-01T14:45:40;18.60;62.70
20081;DHT22;10200;49.232;9.222;2023-05-01T14:48:07;18.50;62.50
20081;DHT22;10200;49.232;9.222;2023-05-01T14:50:33;18.50;63.30
20081;DHT22;10200;49.232;9.222;2023-05-01T14:52:59;18.50;63.50
20081;DHT22;10200;49.232;9.222;2023-05-01T14:55:30;18.50;63.60
20081;DHT22;10200;49.232;9.222;2023-05-01T14:57:57;18.50;63.80
20081;DHT22;10200;49.232;9.222;2023-05-01T15:00:23;18.40;62.90
20081;DHT22;10200;49.232;9.222;2023-05-01T15:02:49;18.40;63.20
20081;DHT22;10200;49.232;9.222;2023-05-01T15:05:16;18.40;63.10
20081;DHT22;10200;49.232;9.222;2023-05-01T15:07:42;18.50;63.70
20081;DHT22;10200;49.232;9.222;2023-05-01T15:10:08;18.50;63.20
20081;DHT22;10200;49.232;9.222;2023-05-01T15:12:34;18.50;62.50
20081;DHT22;10200;49.232;9.222;2023-05-01T15:15:00;18.50;63.40
20081;DHT22;10200;49.232;9.222;2023-05-01T15:17:26;18.50;64.90
20081;DHT22;10200;49.232;9.222;2023-05-01T15:19:53;18.50;64.40
20081;DHT22;10200;49.232;9.222;2023-05-01T15:22:18;18.40;64.20
20081;DHT22;10200;49.232;9.222;2023-05-01T15:24:44;18.50;65.30
20081;DHT22;10200;49.232;9.222;2023-05-01T15:27:10;18.60;65.60
20081;DHT22;10200;49.232;9.222;2023-05-01T15:29:35;18.80;65.40
20081;DHT22;10200;49.232;9.222;2023-05-01T15:32:03;18.90;63.90
20081;DHT22;10200;49.232;9.222;2023-05-01T15:34:29;19.00;64.40
20081;DHT22;10200;49.232;9.222;2023-05-01T15:36:55;19.00;63.60
20081;DHT22;10200;49.232;9.222;2023-05-01T15:39:20;19.00;63.00
20081;DHT22;10200;49.232;9.222;2023-05-01T15:41:46;19.00;63.00
20081;DHT22;10200;49.232;9.222;2023-05-01T15:44:12;19.00;63.70
20081;DHT22;10200;49.232;9.222;2023-05-01T15:46:38;19.00;63.80
20081;DHT22;10200;49.232;9.222;2023-05-01T15:49:08;19.00;63.30
20081;DHT22;10200;49.232;9.222;2023-05-01T15:51:34;19.00;62.60
20081;DHT22;10200;49.232;9.222;2023-05-01T15:54:00;19.10;63.00
20081;DHT22;10200;49.232;9.222;2023-05-01T15:56:27;19.00;62.40
20081;DHT22;10200;49.232;9.222;2023-05-01T15:58:53;19.00;62.20
20081;DHT22;10200;49.232;9.222;2023-05-01T16:01:19;19.10;62.20
20081;DHT22;10200;49.232;9.222;2023-05-01T16:03:46;19.10;62.50
20081;DHT22;10200;49.232;9.222;2023-05-01T16:06:15;19.00;62.00
20081;DHT22;10200;49.232;9.222;2023-05-01T16:08:41;19.00;61.30
20081;DHT22;10200;49.232;9.222;2023-05-01T16:11:10;19.00;61.20
20081;DHT22;10200;49.232;9.222;2023-05-01T16:13:41;19.00;61.90
20081;DHT22;10200;49.232;9.222;2023-05-01T16:16:08;18.90;61.40
20081;DHT22;10200;49.232;9.222;2023-05-01T16:18:35;18.90;61.40
20081;DHT22;10200;49.232;9.222;2023-05-01T16:21:03;18.80;61.20
20081;DHT22;10200;49.232;9.222;2023-05-01T16:23:29;18.80;61.90